SXS4KQ LTAI-LUKK
Flight info
| Callsign | SXS4KQ |
|---|---|
| Flight time | N/A |
| Altitude | 36000 |
| Route | EKNUD UT337 OSVEL UL619 MAKOL DCT GLT DCT KODRU T34 LIPTA |
| Aircraft | B738/M-SDE2E3FGHIRWXY/LB1 |
Departure
| Time | 2026-05-05 09:13 |
|---|---|
| Airport | Antalya International Airport (LTAI) |
Arrival
| Time | N/A |
|---|---|
| Airport | Chişinău International Airport (LUKK) |
| Time | Latitude | Longitude | Altitude | Speed | Heading |
|---|---|---|---|---|---|
| 2026-05-05 08:44 | 36.89702 | 30.80083 | 185 ft | 0 kts | 31° |
| 2026-05-05 09:00 | 36.89691 | 30.80075 | 184 ft | 4 kts | 31° |
| 2026-05-05 09:00 | 36.89642 | 30.80039 | 184 ft | 9 kts | 30° |
| 2026-05-05 09:01 | 36.89628 | 30.80027 | 184 ft | 9 kts | 59° |
| 2026-05-05 09:01 | 36.89624 | 30.80027 | 184 ft | 7 kts | 72° |
| 2026-05-05 09:01 | 36.89622 | 30.80018 | 184 ft | 0 kts | 70° |
| 2026-05-05 09:05 | 36.89624 | 30.80025 | 184 ft | 2 kts | 72° |
| 2026-05-05 09:06 | 36.89625 | 30.80028 | 184 ft | 0 kts | 58° |
| 2026-05-05 09:06 | 36.89626 | 30.80032 | 184 ft | 3 kts | 71° |
| 2026-05-05 09:06 | 36.89614 | 30.80124 | 184 ft | 11 kts | 103° |
| 2026-05-05 09:06 | 36.89601 | 30.80224 | 184 ft | 11 kts | 96° |
| 2026-05-05 09:07 | 36.89593 | 30.80323 | 184 ft | 11 kts | 96° |
| 2026-05-05 09:07 | 36.89585 | 30.80414 | 184 ft | 9 kts | 96° |
| 2026-05-05 09:07 | 36.89579 | 30.80498 | 184 ft | 11 kts | 95° |
| 2026-05-05 09:07 | 36.89566 | 30.80627 | 184 ft | 17 kts | 100° |
| 2026-05-05 09:08 | 36.89472 | 30.80675 | 184 ft | 16 kts | 186° |
| 2026-05-05 09:08 | 36.89360 | 30.80660 | 184 ft | 15 kts | 186° |
| 2026-05-05 09:08 | 36.89247 | 30.80644 | 184 ft | 17 kts | 187° |
| 2026-05-05 09:08 | 36.89122 | 30.80625 | 184 ft | 20 kts | 187° |
| 2026-05-05 09:09 | 36.88954 | 30.80604 | 184 ft | 26 kts | 185° |
| 2026-05-05 09:09 | 36.88768 | 30.80580 | 184 ft | 27 kts | 187° |
| 2026-05-05 09:09 | 36.88581 | 30.80552 | 184 ft | 26 kts | 185° |
| 2026-05-05 09:09 | 36.88403 | 30.80529 | 184 ft | 25 kts | 186° |
| 2026-05-05 09:10 | 36.88232 | 30.80504 | 184 ft | 21 kts | 186° |
| 2026-05-05 09:10 | 36.88142 | 30.80516 | 184 ft | 8 kts | 144° |
| 2026-05-05 09:10 | 36.88120 | 30.80548 | 184 ft | 4 kts | 114° |
| 2026-05-05 09:10 | 36.88111 | 30.80641 | 184 ft | 13 kts | 96° |
| 2026-05-05 09:11 | 36.88109 | 30.80673 | 184 ft | 0 kts | 91° |
| 2026-05-05 09:11 | 36.88116 | 30.80713 | 184 ft | 17 kts | 58° |
| 2026-05-05 09:11 | 36.88227 | 30.80742 | 184 ft | 8 kts | 6° |
| 2026-05-05 09:11 | 36.88235 | 30.80743 | 184 ft | 0 kts | 6° |
| 2026-05-05 09:12 | 36.88235 | 30.80744 | 184 ft | 0 kts | 6° |
| 2026-05-05 09:12 | 36.88374 | 30.80761 | 184 ft | 47 kts | 5° |
| 2026-05-05 09:12 | 36.88879 | 30.80826 | 184 ft | 96 kts | 7° |
| 2026-05-05 09:13 | 36.89674 | 30.80936 | 185 ft | 132 kts | 8° |
| 2026-05-05 09:13 | 36.90703 | 30.81080 | 197 ft | 165 kts | 3° |
| 2026-05-05 09:13 | 36.91845 | 30.81275 | 830 ft | 164 kts | 6° |
| 2026-05-05 09:13 | 36.92971 | 30.81738 | 1335 ft | 179 kts | 24° |
| 2026-05-05 09:14 | 36.94076 | 30.82476 | 1948 ft | 184 kts | 23° |
| 2026-05-05 09:14 | 36.95286 | 30.83163 | 2306 ft | 204 kts | 19° |
| 2026-05-05 09:14 | 36.96646 | 30.83833 | 2906 ft | 214 kts | 18° |
| 2026-05-05 09:14 | 36.98021 | 30.84482 | 3763 ft | 211 kts | 18° |
| 2026-05-05 09:15 | 36.99409 | 30.85130 | 4494 ft | 215 kts | 19° |
| 2026-05-05 09:15 | 37.00845 | 30.85825 | 5008 ft | 230 kts | 20° |
| 2026-05-05 09:15 | 37.02357 | 30.86580 | 5607 ft | 241 kts | 21° |
| 2026-05-05 09:15 | 37.03946 | 30.87363 | 6143 ft | 254 kts | 21° |
| 2026-05-05 09:16 | 37.05629 | 30.88199 | 6843 ft | 261 kts | 21° |
| 2026-05-05 09:16 | 37.07251 | 30.88957 | 7635 ft | 243 kts | 17° |
| 2026-05-05 09:16 | 37.08995 | 30.89114 | 7884 ft | 266 kts | 353° |
| 2026-05-05 09:16 | 37.10803 | 30.88505 | 8674 ft | 268 kts | 345° |
| 2026-05-05 09:17 | 37.12574 | 30.87824 | 9340 ft | 275 kts | 347° |
| 2026-05-05 09:17 | 37.14442 | 30.87236 | 9890 ft | 280 kts | 349° |
| 2026-05-05 09:17 | 37.16339 | 30.86738 | 10007 ft | 277 kts | 351° |
| 2026-05-05 09:17 | 37.18237 | 30.86275 | 10013 ft | 275 kts | 351° |
| 2026-05-05 09:18 | 37.20123 | 30.85817 | 10006 ft | 274 kts | 351° |
| 2026-05-05 09:18 | 37.21983 | 30.85357 | 10013 ft | 276 kts | 351° |
| 2026-05-05 09:18 | 37.23883 | 30.84883 | 10004 ft | 275 kts | 351° |
| 2026-05-05 09:18 | 37.25735 | 30.84418 | 9990 ft | 274 kts | 351° |
| 2026-05-05 09:19 | 37.27605 | 30.83947 | 9996 ft | 275 kts | 351° |
| 2026-05-05 09:19 | 37.29520 | 30.83466 | 10011 ft | 285 kts | 351° |
| 2026-05-05 09:19 | 37.31564 | 30.82957 | 10008 ft | 315 kts | 351° |
| 2026-05-05 09:19 | 37.33799 | 30.82400 | 10005 ft | 334 kts | 351° |
| 2026-05-05 09:20 | 37.36096 | 30.81819 | 10007 ft | 336 kts | 350° |
| 2026-05-05 09:20 | 37.38397 | 30.81230 | 10006 ft | 337 kts | 350° |
| 2026-05-05 09:20 | 37.40673 | 30.80648 | 10004 ft | 337 kts | 350° |
| 2026-05-05 09:20 | 37.42989 | 30.80213 | 10020 ft | 336 kts | 356° |
| 2026-05-05 09:21 | 37.45324 | 30.80126 | 10022 ft | 335 kts | 1° |
| 2026-05-05 09:21 | 37.47666 | 30.80212 | 10025 ft | 334 kts | 4° |
| 2026-05-05 09:21 | 37.50005 | 30.80349 | 10041 ft | 337 kts | 4° |
| 2026-05-05 09:21 | 37.52374 | 30.80497 | 10725 ft | 342 kts | 4° |
| 2026-05-05 09:22 | 37.54730 | 30.80635 | 11680 ft | 340 kts | 3° |
| 2026-05-05 09:22 | 37.57092 | 30.80761 | 12479 ft | 343 kts | 3° |
| 2026-05-05 09:22 | 37.59486 | 30.80878 | 13276 ft | 346 kts | 2° |
| 2026-05-05 09:22 | 37.61882 | 30.80989 | 14014 ft | 350 kts | 2° |
| 2026-05-05 09:23 | 37.64329 | 30.81099 | 14867 ft | 352 kts | 2° |
| 2026-05-05 09:23 | 37.66757 | 30.81208 | 15736 ft | 352 kts | 2° |
| 2026-05-05 09:23 | 37.69209 | 30.81318 | 16486 ft | 356 kts | 2° |
| 2026-05-05 09:23 | 37.71687 | 30.81429 | 17250 ft | 358 kts | 1° |
| 2026-05-05 09:24 | 37.74163 | 30.81541 | 17974 ft | 360 kts | 1° |
| 2026-05-05 09:24 | 37.76683 | 30.81655 | 18680 ft | 363 kts | 1° |
| 2026-05-05 09:24 | 37.79186 | 30.81753 | 19392 ft | 364 kts | 0° |
| 2026-05-05 09:24 | 37.81731 | 30.81760 | 20064 ft | 365 kts | 359° |
| 2026-05-05 09:25 | 37.84258 | 30.81700 | 20738 ft | 367 kts | 358° |
| 2026-05-05 09:25 | 37.86820 | 30.81620 | 21360 ft | 369 kts | 358° |
| 2026-05-05 09:25 | 37.89389 | 30.81542 | 21947 ft | 371 kts | 358° |
| 2026-05-05 09:25 | 37.91980 | 30.81471 | 22594 ft | 372 kts | 358° |
| 2026-05-05 09:26 | 37.94550 | 30.81406 | 23200 ft | 373 kts | 358° |
| 2026-05-05 09:26 | 37.97167 | 30.81346 | 23739 ft | 376 kts | 358° |
| 2026-05-05 09:26 | 37.99789 | 30.81289 | 24330 ft | 377 kts | 358° |
| 2026-05-05 09:26 | 38.02412 | 30.81234 | 24785 ft | 382 kts | 358° |
| 2026-05-05 09:27 | 38.05075 | 30.81179 | 25348 ft | 383 kts | 358° |
| 2026-05-05 09:27 | 38.07741 | 30.81127 | 25846 ft | 386 kts | 358° |
| 2026-05-05 09:27 | 38.10456 | 30.81208 | 26283 ft | 391 kts | 2° |
| 2026-05-05 09:27 | 38.13166 | 30.81697 | 26731 ft | 398 kts | 9° |
| 2026-05-05 09:28 | 38.15824 | 30.82736 | 27374 ft | 400 kts | 16° |
| 2026-05-05 09:28 | 38.18401 | 30.84065 | 27837 ft | 405 kts | 19° |
| 2026-05-05 09:28 | 38.21005 | 30.85561 | 28246 ft | 410 kts | 20° |
| 2026-05-05 09:28 | 38.23593 | 30.87112 | 28661 ft | 414 kts | 20° |
| 2026-05-05 09:29 | 38.26207 | 30.88693 | 29136 ft | 415 kts | 20° |
| 2026-05-05 09:29 | 38.28841 | 30.90285 | 29625 ft | 417 kts | 20° |
| 2026-05-05 09:29 | 38.31452 | 30.91858 | 30323 ft | 413 kts | 20° |
| 2026-05-05 09:29 | 38.34047 | 30.93417 | 30878 ft | 411 kts | 20° |
| 2026-05-05 09:30 | 38.36619 | 30.94954 | 31328 ft | 411 kts | 20° |
| 2026-05-05 09:30 | 38.39208 | 30.96496 | 31784 ft | 411 kts | 20° |
| 2026-05-05 09:30 | 38.41804 | 30.97975 | 32231 ft | 409 kts | 18° |
| 2026-05-05 09:30 | 38.44497 | 30.99209 | 32646 ft | 406 kts | 13° |
| 2026-05-05 09:31 | 38.47219 | 31.00022 | 33015 ft | 403 kts | 6° |
| 2026-05-05 09:31 | 38.49992 | 31.00407 | 33383 ft | 401 kts | 0° |
| 2026-05-05 09:31 | 38.52762 | 31.00356 | 33748 ft | 400 kts | 354° |
| 2026-05-05 09:31 | 38.55521 | 30.99866 | 34111 ft | 400 kts | 347° |
| 2026-05-05 09:32 | 38.58216 | 30.98942 | 34450 ft | 400 kts | 341° |
| 2026-05-05 09:32 | 38.60773 | 30.97615 | 34725 ft | 400 kts | 335° |
| 2026-05-05 09:32 | 38.63271 | 30.95993 | 34964 ft | 401 kts | 333° |
| 2026-05-05 09:32 | 38.65730 | 30.94348 | 35144 ft | 403 kts | 334° |
| 2026-05-05 09:33 | 38.68245 | 30.92767 | 35304 ft | 404 kts | 335° |
| 2026-05-05 09:33 | 38.70805 | 30.91289 | 35497 ft | 405 kts | 337° |
| 2026-05-05 09:33 | 38.73402 | 30.89895 | 35669 ft | 406 kts | 338° |
| 2026-05-05 09:33 | 38.76032 | 30.88553 | 35815 ft | 409 kts | 339° |
| 2026-05-05 09:34 | 38.78675 | 30.87243 | 35991 ft | 411 kts | 339° |
| 2026-05-05 09:34 | 38.84073 | 30.84616 | 36038 ft | 414 kts | 339° |
| 2026-05-05 09:35 | 38.89434 | 30.82022 | 36028 ft | 410 kts | 339° |
| 2026-05-05 09:35 | 38.97436 | 30.78147 | 36023 ft | 411 kts | 339° |
| 2026-05-05 09:36 | 39.02761 | 30.75562 | 36016 ft | 411 kts | 339° |
| 2026-05-05 09:36 | 39.08140 | 30.72944 | 36028 ft | 412 kts | 339° |
| 2026-05-05 09:37 | 39.13496 | 30.70334 | 36031 ft | 413 kts | 339° |
| 2026-05-05 09:37 | 39.18842 | 30.67724 | 36027 ft | 411 kts | 340° |
| 2026-05-05 09:38 | 39.24195 | 30.65104 | 36023 ft | 412 kts | 340° |
| 2026-05-05 09:38 | 39.29528 | 30.62492 | 36027 ft | 413 kts | 339° |
| 2026-05-05 09:39 | 39.34885 | 30.59864 | 36031 ft | 413 kts | 340° |
| 2026-05-05 09:39 | 39.40297 | 30.57204 | 36038 ft | 413 kts | 339° |
| 2026-05-05 09:40 | 39.45628 | 30.54579 | 36042 ft | 413 kts | 339° |
| 2026-05-05 09:40 | 39.50988 | 30.51935 | 36029 ft | 413 kts | 340° |
| 2026-05-05 09:41 | 39.56346 | 30.49253 | 36044 ft | 414 kts | 338° |
| 2026-05-05 09:41 | 39.61614 | 30.46253 | 36038 ft | 413 kts | 336° |
| 2026-05-05 09:42 | 39.66839 | 30.43133 | 36064 ft | 414 kts | 336° |
| 2026-05-05 09:42 | 39.72065 | 30.40033 | 36063 ft | 415 kts | 336° |
| 2026-05-05 09:43 | 39.77327 | 30.36939 | 36085 ft | 415 kts | 336° |
| 2026-05-05 09:43 | 39.82557 | 30.33872 | 36087 ft | 415 kts | 336° |
| 2026-05-05 09:44 | 39.87820 | 30.30785 | 36065 ft | 415 kts | 336° |
| 2026-05-05 09:44 | 39.93089 | 30.27692 | 36052 ft | 415 kts | 336° |
| 2026-05-05 09:45 | 39.98344 | 30.24602 | 36064 ft | 415 kts | 336° |
| 2026-05-05 09:45 | 40.03590 | 30.21512 | 36043 ft | 415 kts | 336° |
| 2026-05-05 09:46 | 40.08838 | 30.18416 | 36054 ft | 416 kts | 336° |
| 2026-05-05 09:46 | 40.14119 | 30.15296 | 36060 ft | 416 kts | 336° |
| 2026-05-05 09:47 | 40.19403 | 30.12166 | 36068 ft | 417 kts | 336° |
| 2026-05-05 09:47 | 40.24665 | 30.09046 | 36082 ft | 418 kts | 336° |
| 2026-05-05 09:48 | 40.29946 | 30.05909 | 36068 ft | 417 kts | 336° |
| 2026-05-05 09:48 | 40.35218 | 30.02771 | 36079 ft | 418 kts | 336° |
| 2026-05-05 09:49 | 40.39658 | 30.00127 | 36068 ft | 419 kts | 336° |